createdAt,value
2022-08-29T00:00:40.585Z,0.00
2022-08-29T00:01:40.755Z,0.00
2022-08-29T00:02:40.922Z,0.00
2022-08-29T00:03:41.101Z,0.00
2022-08-29T00:04:41.294Z,0.00
2022-08-29T00:05:42.015Z,0.00
2022-08-29T00:06:41.509Z,0.00
2022-08-29T00:07:41.641Z,0.00
2022-08-29T00:08:41.763Z,0.00
2022-08-29T00:09:41.882Z,0.00
2022-08-29T00:10:42.125Z,0.00
2022-08-29T00:11:45.000Z,0.00
2022-08-29T00:12:42.396Z,0.00
2022-08-29T00:13:42.543Z,0.00
2022-08-29T00:14:42.691Z,0.00
2022-08-29T00:15:44.908Z,0.00
2022-08-29T00:16:43.077Z,0.00
2022-08-29T00:17:44.216Z,0.00
2022-08-29T00:18:43.480Z,0.00
2022-08-29T00:19:43.637Z,0.00
2022-08-29T00:20:43.771Z,0.00
2022-08-29T00:21:43.923Z,0.00
2022-08-29T00:22:44.162Z,0.00
2022-08-29T00:23:44.735Z,0.00
2022-08-29T00:24:44.617Z,0.00
2022-08-29T00:25:44.747Z,0.00
2022-08-29T00:26:44.877Z,0.00
2022-08-29T00:27:48.541Z,0.00
2022-08-29T00:28:45.205Z,0.00
2022-08-29T00:29:45.371Z,0.00
2022-08-29T00:30:45.515Z,0.00
2022-08-29T00:31:45.705Z,0.00
2022-08-29T00:32:45.918Z,0.00
2022-08-29T00:33:46.059Z,0.00
2022-08-29T00:34:46.721Z,0.00
2022-08-29T00:35:46.413Z,0.00
2022-08-29T00:36:49.203Z,0.00
2022-08-29T00:37:46.769Z,0.00
2022-08-29T00:38:46.970Z,0.00
2022-08-29T00:39:47.717Z,0.00
2022-08-29T00:40:51.884Z,0.00
2022-08-29T00:41:48.233Z,0.00
2022-08-29T00:42:48.231Z,0.00
2022-08-29T00:43:47.969Z,0.00
2022-08-29T00:44:48.105Z,0.00
2022-08-29T00:45:48.336Z,0.00
2022-08-29T00:46:48.394Z,0.00
2022-08-29T00:47:48.544Z,0.00
2022-08-29T00:48:48.718Z,0.00
2022-08-29T00:49:48.882Z,0.00
2022-08-29T00:50:49.047Z,0.00
2022-08-29T00:51:49.740Z,0.00
2022-08-29T00:52:49.373Z,0.00
2022-08-29T00:53:49.639Z,0.00
2022-08-29T00:54:50.731Z,0.00
2022-08-29T00:55:50.526Z,0.00
2022-08-29T00:56:50.123Z,0.00
2022-08-29T00:57:50.245Z,0.00
2022-08-29T00:58:50.412Z,0.00
2022-08-29T00:59:50.570Z,0.00
2022-08-29T01:00:50.771Z,0.00
2022-08-29T01:01:50.904Z,0.00
2022-08-29T01:02:51.734Z,0.00
2022-08-29T01:03:51.246Z,0.00
2022-08-29T01:04:51.403Z,0.00
2022-08-29T01:05:51.519Z,0.00
2022-08-29T01:06:51.674Z,0.00
2022-08-29T01:07:52.738Z,0.00
2022-08-29T01:08:57.661Z,0.00
2022-08-29T01:09:53.236Z,0.00
2022-08-29T01:10:52.347Z,0.00
2022-08-29T01:11:53.237Z,0.00
2022-08-29T01:12:52.628Z,0.00
2022-08-29T01:13:53.736Z,0.00
2022-08-29T01:14:53.253Z,0.00
2022-08-29T01:15:53.736Z,0.00
2022-08-29T01:16:53.400Z,0.00
2022-08-29T01:17:54.563Z,0.00
2022-08-29T01:18:53.705Z,0.00
2022-08-29T01:19:53.849Z,0.00
2022-08-29T01:20:53.998Z,0.00
2022-08-29T01:21:54.252Z,0.00
2022-08-29T01:22:55.243Z,0.00
2022-08-29T01:23:54.586Z,0.00
2022-08-29T01:24:54.828Z,0.00
2022-08-29T01:25:54.986Z,0.00
2022-08-29T01:26:55.132Z,0.00
2022-08-29T01:27:55.282Z,0.00
2022-08-29T01:28:56.244Z,0.00
2022-08-29T01:29:55.622Z,0.00
2022-08-29T01:30:55.766Z,0.00
2022-08-29T01:31:58.001Z,0.00
2022-08-29T01:32:56.116Z,0.00
2022-08-29T01:33:56.260Z,0.00
2022-08-29T01:34:56.404Z,0.00
2022-08-29T01:35:56.572Z,0.00
2022-08-29T01:36:56.713Z,0.00
2022-08-29T01:37:56.845Z,0.00
2022-08-29T01:38:57.747Z,0.00
2022-08-29T01:39:57.186Z,0.00
2022-08-29T01:40:57.388Z,0.00
2022-08-29T01:41:57.588Z,0.00
2022-08-29T01:42:57.728Z,0.00
2022-08-29T01:43:57.900Z,0.00
2022-08-29T01:44:58.061Z,0.00
2022-08-29T01:45:58.273Z,0.00
2022-08-29T01:47:02.505Z,0.00
2022-08-29T01:48:06.115Z,0.00
2022-08-29T01:49:00.711Z,0.00
2022-08-29T01:49:58.929Z,0.00
2022-08-29T01:50:59.064Z,0.00
2022-08-29T01:51:59.238Z,0.00
2022-08-29T01:52:59.409Z,0.00
2022-08-29T01:53:59.567Z,0.00
2022-08-29T01:54:59.722Z,0.00
2022-08-29T01:55:59.883Z,0.00
2022-08-29T01:57:00.753Z,0.00
2022-08-29T01:58:00.158Z,0.00
2022-08-29T01:59:00.351Z,0.00
2022-08-29T02:00:00.549Z,0.00
2022-08-29T02:01:00.730Z,0.00
2022-08-29T02:02:00.875Z,0.00
2022-08-29T02:03:00.953Z,0.00
2022-08-29T02:04:01.119Z,0.00
2022-08-29T02:05:01.277Z,0.00
2022-08-29T02:06:01.408Z,0.00
2022-08-29T02:07:01.545Z,0.00
2022-08-29T02:08:01.666Z,0.00
2022-08-29T02:09:01.849Z,0.00
2022-08-29T02:10:01.979Z,0.00
2022-08-29T02:11:02.136Z,0.00
2022-08-29T02:12:03.253Z,0.00
2022-08-29T02:13:02.471Z,0.00
2022-08-29T02:14:02.628Z,0.00
2022-08-29T02:15:02.761Z,0.00
2022-08-29T02:16:02.978Z,0.00
2022-08-29T02:17:03.132Z,0.00
2022-08-29T02:18:03.261Z,0.00
2022-08-29T02:19:03.385Z,0.00
2022-08-29T02:20:03.770Z,0.00
2022-08-29T02:21:03.773Z,0.00
2022-08-29T02:22:03.922Z,0.00
2022-08-29T02:23:04.063Z,0.00
2022-08-29T02:24:21.337Z,0.00
2022-08-29T02:25:06.399Z,0.00
2022-08-29T02:26:04.654Z,0.00
2022-08-29T02:27:04.822Z,0.00
2022-08-29T02:28:05.011Z,0.00
2022-08-29T02:29:05.154Z,0.00
2022-08-29T02:30:05.294Z,0.00
2022-08-29T02:31:05.547Z,0.00
2022-08-29T02:32:05.575Z,0.00
2022-08-29T02:33:05.931Z,0.00
2022-08-29T02:34:05.845Z,0.00
2022-08-29T02:35:05.961Z,0.00
2022-08-29T02:36:06.775Z,0.00
2022-08-29T02:37:06.306Z,0.00
2022-08-29T02:38:06.557Z,0.00
2022-08-29T02:39:06.689Z,0.00
2022-08-29T02:40:06.903Z,0.00
2022-08-29T02:41:09.360Z,0.00
2022-08-29T02:42:08.307Z,0.00
2022-08-29T02:43:07.445Z,0.00
2022-08-29T02:44:08.262Z,0.00
2022-08-29T02:45:08.269Z,0.00
2022-08-29T02:46:08.764Z,0.00
2022-08-29T02:47:08.222Z,0.00
2022-08-29T02:48:08.415Z,0.00
2022-08-29T02:49:08.774Z,0.00
2022-08-29T02:50:08.668Z,0.00
2022-08-29T02:51:08.823Z,0.00
2022-08-29T02:52:09.766Z,0.00
2022-08-29T02:53:09.165Z,0.00
2022-08-29T02:54:09.310Z,0.00
2022-08-29T02:55:09.462Z,0.00
2022-08-29T02:56:09.620Z,0.00
2022-08-29T02:57:09.855Z,0.00
2022-08-29T02:58:09.999Z,0.00
2022-08-29T02:59:10.279Z,0.00
2022-08-29T03:00:11.267Z,0.00
2022-08-29T03:01:10.549Z,0.00
2022-08-29T03:02:10.668Z,0.00
2022-08-29T03:03:10.838Z,0.00
2022-08-29T03:04:11.015Z,0.00
2022-08-29T03:05:11.767Z,0.00
2022-08-29T03:06:12.267Z,0.00
2022-08-29T03:07:12.273Z,0.00
2022-08-29T03:08:11.751Z,0.00
2022-08-29T03:09:11.904Z,0.00
2022-08-29T03:10:12.044Z,0.00
2022-08-29T03:11:12.770Z,0.00
2022-08-29T03:12:12.394Z,0.00
2022-08-29T03:13:12.530Z,0.00
2022-08-29T03:14:12.795Z,0.00
2022-08-29T03:15:12.895Z,0.00
2022-08-29T03:16:13.096Z,0.00
2022-08-29T03:17:13.141Z,0.00
2022-08-29T03:18:13.859Z,0.00
2022-08-29T03:19:13.785Z,0.00
2022-08-29T03:20:13.646Z,0.00
2022-08-29T03:21:13.785Z,0.00
2022-08-29T03:22:13.913Z,0.00
2022-08-29T03:23:14.027Z,0.00
2022-08-29T03:24:14.156Z,0.00
2022-08-29T03:25:14.311Z,0.00
2022-08-29T03:26:14.435Z,0.00
2022-08-29T03:27:14.690Z,0.00
2022-08-29T03:28:14.969Z,0.00
2022-08-29T03:29:14.996Z,0.00
2022-08-29T03:30:15.128Z,0.00
2022-08-29T03:31:15.411Z,0.00
2022-08-29T03:32:15.602Z,0.00
2022-08-29T03:33:15.787Z,0.00
2022-08-29T03:34:15.870Z,0.00
2022-08-29T03:35:16.114Z,0.00
2022-08-29T03:36:16.781Z,0.00
2022-08-29T03:37:16.402Z,0.00
2022-08-29T03:38:16.569Z,0.00
2022-08-29T03:39:16.723Z,0.00
2022-08-29T03:40:16.941Z,0.00
2022-08-29T03:41:17.021Z,0.00
2022-08-29T03:42:17.789Z,0.00
2022-08-29T03:43:18.277Z,0.00
2022-08-29T03:44:17.790Z,0.00
2022-08-29T03:45:18.278Z,0.00
2022-08-29T03:46:17.967Z,0.00
2022-08-29T03:47:18.291Z,0.00
2022-08-29T03:48:18.174Z,0.00
2022-08-29T03:49:19.280Z,0.00
2022-08-29T03:50:18.544Z,0.00
2022-08-29T03:51:18.717Z,0.00
2022-08-29T03:52:18.857Z,0.00
2022-08-29T03:53:18.991Z,0.00
2022-08-29T03:54:19.173Z,0.00
2022-08-29T03:55:19.805Z,0.00
2022-08-29T03:56:19.446Z,0.00
2022-08-29T03:57:19.557Z,0.00
2022-08-29T03:58:19.682Z,0.00
2022-08-29T03:59:20.786Z,0.00
2022-08-29T04:00:20.027Z,0.00
2022-08-29T04:01:20.220Z,0.00
2022-08-29T04:02:21.280Z,0.00
2022-08-29T04:03:24.941Z,0.00
2022-08-29T04:04:21.749Z,0.00
2022-08-29T04:05:20.879Z,0.00
2022-08-29T04:06:21.302Z,0.00
2022-08-29T04:07:21.781Z,0.00
2022-08-29T04:08:21.397Z,0.00
2022-08-29T04:09:22.285Z,0.00
2022-08-29T04:10:21.725Z,0.00
2022-08-29T04:11:21.945Z,0.00
2022-08-29T04:12:22.167Z,0.00
2022-08-29T04:13:22.797Z,0.00
2022-08-29T04:14:22.553Z,0.00
2022-08-29T04:15:22.674Z,0.00
2022-08-29T04:16:22.974Z,0.00
2022-08-29T04:17:23.153Z,0.00
2022-08-29T04:18:23.354Z,0.00
2022-08-29T04:19:23.491Z,0.00
2022-08-29T04:20:25.392Z,0.00
2022-08-29T04:21:24.706Z,0.00
2022-08-29T04:22:23.917Z,0.00
2022-08-29T04:23:24.057Z,0.00
2022-08-29T04:24:24.209Z,0.00
2022-08-29T04:25:24.324Z,0.00
2022-08-29T04:26:36.509Z,0.00
2022-08-29T04:27:26.698Z,0.00
2022-08-29T04:28:24.910Z,0.00
2022-08-29T04:29:25.073Z,0.00
2022-08-29T04:30:25.241Z,0.00
2022-08-29T04:31:25.465Z,0.00
2022-08-29T04:32:25.608Z,0.00
2022-08-29T04:33:25.758Z,0.00
2022-08-29T04:34:26.791Z,0.00
2022-08-29T04:35:26.037Z,0.00
2022-08-29T04:36:26.148Z,0.00
2022-08-29T04:37:26.790Z,0.00
2022-08-29T04:38:27.292Z,0.00
2022-08-29T04:39:27.296Z,5.62
2022-08-29T04:40:26.711Z,5.62
2022-08-29T04:41:26.864Z,5.62
2022-08-29T04:42:27.015Z,5.62
2022-08-29T04:43:27.793Z,5.62
2022-08-29T04:44:27.393Z,5.62
2022-08-29T04:45:28.547Z,5.62
2022-08-29T04:46:27.769Z,11.25
2022-08-29T04:47:27.916Z,11.25
2022-08-29T04:48:28.038Z,11.25
2022-08-29T04:49:28.174Z,11.25
2022-08-29T04:50:28.330Z,11.25
2022-08-29T04:51:28.473Z,11.25
2022-08-29T04:52:29.300Z,16.88
2022-08-29T04:53:28.816Z,16.88
2022-08-29T04:54:28.959Z,16.88
2022-08-29T04:55:29.305Z,16.88
2022-08-29T04:56:29.263Z,16.88
2022-08-29T04:57:29.469Z,16.88
2022-08-29T04:58:29.633Z,16.88
2022-08-29T04:59:29.773Z,16.88
2022-08-29T05:00:30.800Z,16.88
2022-08-29T05:01:30.050Z,16.88
2022-08-29T05:02:30.304Z,22.50
2022-08-29T05:03:30.373Z,22.50
2022-08-29T05:04:30.500Z,22.50
2022-08-29T05:05:31.300Z,22.50
2022-08-29T05:06:30.788Z,22.50
2022-08-29T05:07:31.311Z,28.12
2022-08-29T05:08:31.090Z,28.12
2022-08-29T05:09:31.223Z,28.12
2022-08-29T05:10:32.300Z,28.12
2022-08-29T05:11:31.637Z,33.75
2022-08-29T05:12:31.749Z,33.75
2022-08-29T05:13:31.890Z,33.75
2022-08-29T05:14:32.039Z,39.38
2022-08-29T05:15:32.221Z,39.38
2022-08-29T05:16:32.369Z,45.00
2022-08-29T05:17:32.490Z,45.00
2022-08-29T05:18:32.638Z,45.00
2022-08-29T05:19:34.349Z,50.62
2022-08-29T05:20:32.981Z,45.00
2022-08-29T05:21:34.917Z,45.00
2022-08-29T05:22:33.247Z,45.00
2022-08-29T05:23:33.381Z,45.00
2022-08-29T05:24:33.567Z,45.00
2022-08-29T05:25:34.305Z,45.00
2022-08-29T05:26:33.878Z,45.00
2022-08-29T05:27:34.034Z,45.00
2022-08-29T05:28:34.172Z,45.00
2022-08-29T05:29:34.340Z,50.62
2022-08-29T05:30:35.504Z,50.62
2022-08-29T05:31:34.709Z,50.62
2022-08-29T05:32:34.878Z,50.62
2022-08-29T05:33:35.023Z,50.62
2022-08-29T05:34:35.808Z,50.62
2022-08-29T05:35:35.831Z,56.25
2022-08-29T05:36:35.461Z,56.25
2022-08-29T05:37:35.607Z,56.25
2022-08-29T05:38:35.761Z,61.88
2022-08-29T05:39:35.920Z,61.88
2022-08-29T05:40:36.346Z,61.88
2022-08-29T05:41:38.464Z,61.88
2022-08-29T05:42:36.470Z,61.88
2022-08-29T05:43:36.642Z,61.88
2022-08-29T05:44:36.795Z,61.88
2022-08-29T05:45:36.940Z,61.88
2022-08-29T05:46:37.109Z,67.50
2022-08-29T05:47:37.319Z,67.50
2022-08-29T05:48:37.452Z,67.50
2022-08-29T05:49:37.698Z,67.50
2022-08-29T05:50:37.892Z,67.50
2022-08-29T05:51:39.820Z,73.12
2022-08-29T05:52:39.241Z,78.75
2022-08-29T05:53:38.477Z,73.12
2022-08-29T05:54:38.600Z,78.75
2022-08-29T05:55:38.766Z,78.75
2022-08-29T05:56:39.830Z,84.38
2022-08-29T05:57:39.053Z,90.00
2022-08-29T05:58:40.182Z,90.00
2022-08-29T05:59:39.432Z,106.88
2022-08-29T06:00:39.822Z,112.50
2022-08-29T06:01:40.310Z,101.25
2022-08-29T06:02:40.045Z,101.25
2022-08-29T06:03:44.178Z,112.50
2022-08-29T06:04:42.336Z,112.50
2022-08-29T06:05:40.552Z,112.50
2022-08-29T06:06:41.315Z,112.50
2022-08-29T06:07:40.824Z,112.50
2022-08-29T06:08:40.978Z,106.88
2022-08-29T06:09:41.166Z,118.12
2022-08-29T06:10:41.329Z,118.12
2022-08-29T06:11:41.477Z,106.88
2022-08-29T06:12:41.638Z,112.50
2022-08-29T06:13:42.316Z,123.75
2022-08-29T06:14:41.952Z,123.75
2022-08-29T06:15:43.172Z,123.75
2022-08-29T06:16:42.306Z,140.62
2022-08-29T06:17:42.433Z,140.62
2022-08-29T06:18:42.561Z,140.62
2022-08-29T06:19:42.829Z,135.00
2022-08-29T06:20:42.947Z,140.62
2022-08-29T06:21:43.088Z,146.25
2022-08-29T06:22:43.248Z,146.25
2022-08-29T06:23:43.414Z,146.25
2022-08-29T06:24:44.431Z,140.62
2022-08-29T06:25:43.796Z,146.25
2022-08-29T06:26:43.982Z,140.62
2022-08-29T06:27:44.176Z,135.00
2022-08-29T06:28:44.348Z,135.00
2022-08-29T06:29:45.320Z,140.62
2022-08-29T06:30:45.758Z,135.00
2022-08-29T06:31:44.932Z,140.62
2022-08-29T06:32:45.814Z,146.25
2022-08-29T06:33:46.308Z,140.62
2022-08-29T06:34:45.545Z,163.12
2022-08-29T06:35:45.668Z,168.75
2022-08-29T06:36:45.823Z,174.38
2022-08-29T06:37:46.820Z,213.75
2022-08-29T06:38:46.174Z,213.75
2022-08-29T06:39:46.824Z,185.62
2022-08-29T06:40:46.515Z,180.00
2022-08-29T06:41:46.838Z,185.62
2022-08-29T06:42:46.751Z,185.62
2022-08-29T06:43:46.919Z,202.50
2022-08-29T06:44:48.042Z,185.62
2022-08-29T06:45:47.876Z,219.38
2022-08-29T06:46:47.525Z,208.12
2022-08-29T06:47:47.693Z,213.75
2022-08-29T06:48:47.890Z,230.62
2022-08-29T06:49:48.823Z,236.25
2022-08-29T06:50:48.201Z,230.62
2022-08-29T06:51:48.363Z,213.75
2022-08-29T06:52:48.517Z,208.12
2022-08-29T06:53:48.768Z,208.12
2022-08-29T06:54:48.961Z,208.12
2022-08-29T06:55:49.057Z,213.75
2022-08-29T06:56:49.828Z,225.00
2022-08-29T06:57:50.333Z,230.62
2022-08-29T06:58:49.608Z,230.62
2022-08-29T06:59:50.333Z,213.75
2022-08-29T07:00:50.046Z,208.12
2022-08-29T07:01:50.282Z,213.75
2022-08-29T07:02:52.648Z,219.38
2022-08-29T07:03:50.517Z,241.88
2022-08-29T07:04:51.322Z,286.88
2022-08-29T07:05:51.820Z,292.50
2022-08-29T07:06:50.940Z,275.62
2022-08-29T07:07:51.344Z,303.75
2022-08-29T07:08:55.971Z,528.75
2022-08-29T07:09:52.844Z,376.88
2022-08-29T07:10:52.335Z,551.25
2022-08-29T07:11:51.694Z,596.25
2022-08-29T07:12:51.850Z,680.62
2022-08-29T07:13:51.990Z,438.75
2022-08-29T07:14:53.341Z,416.25
2022-08-29T07:15:52.875Z,421.88
2022-08-29T07:16:52.843Z,438.75
2022-08-29T07:17:56.576Z,579.38
2022-08-29T07:18:54.959Z,613.12
2022-08-29T07:19:53.167Z,804.38
2022-08-29T07:20:53.837Z,781.88
2022-08-29T07:21:53.466Z,765.00
2022-08-29T07:22:53.594Z,658.12
2022-08-29T07:23:53.725Z,517.50
2022-08-29T07:24:53.909Z,331.88
2022-08-29T07:25:54.066Z,292.50
2022-08-29T07:26:54.836Z,292.50
2022-08-29T07:27:54.471Z,286.88
2022-08-29T07:28:54.661Z,309.38
2022-08-29T07:29:54.845Z,320.62
2022-08-29T07:30:55.072Z,315.00
2022-08-29T07:31:55.249Z,331.88
2022-08-29T07:32:55.861Z,444.38
2022-08-29T07:34:01.868Z,421.88
2022-08-29T07:34:56.756Z,455.62
2022-08-29T07:35:56.898Z,742.50
2022-08-29T07:36:56.840Z,742.50
2022-08-29T07:37:56.249Z,714.38
2022-08-29T07:38:56.861Z,736.88
2022-08-29T07:39:56.699Z,410.62
2022-08-29T07:40:56.771Z,275.62
2022-08-29T07:41:56.942Z,225.00
2022-08-29T07:42:57.091Z,225.00
2022-08-29T07:43:57.232Z,241.88
2022-08-29T07:44:57.408Z,258.75
2022-08-29T07:45:57.574Z,298.12
2022-08-29T07:46:58.344Z,343.12
2022-08-29T07:47:58.363Z,320.62
2022-08-29T07:48:58.112Z,320.62
2022-08-29T07:49:58.848Z,360.00
2022-08-29T07:50:58.500Z,320.62
2022-08-29T07:51:58.636Z,331.88
2022-08-29T07:52:59.363Z,331.88
2022-08-29T07:53:59.013Z,393.75
2022-08-29T07:54:59.847Z,315.00
2022-08-29T07:55:59.336Z,298.12
2022-08-29T07:56:59.850Z,303.75
2022-08-29T07:58:00.623Z,303.75
2022-08-29T07:58:59.742Z,348.75
2022-08-29T08:00:00.359Z,421.88
2022-08-29T08:01:00.174Z,646.88
2022-08-29T08:02:00.393Z,618.75
2022-08-29T08:03:00.463Z,601.88
2022-08-29T08:04:00.549Z,382.50
2022-08-29T08:05:00.692Z,303.75
2022-08-29T08:06:00.877Z,303.75
2022-08-29T08:07:02.854Z,298.12
2022-08-29T08:08:08.666Z,399.38
2022-08-29T08:09:03.483Z,450.00
2022-08-29T08:10:02.689Z,337.50
2022-08-29T08:11:01.904Z,348.75
2022-08-29T08:12:07.638Z,331.88
2022-08-29T08:13:04.202Z,495.00
2022-08-29T08:14:02.407Z,1012.50
2022-08-29T08:15:02.536Z,1940.62
2022-08-29T08:16:02.685Z,2188.12
2022-08-29T08:17:03.409Z,3273.75
2022-08-29T08:18:02.954Z,3431.25
2022-08-29T08:19:03.132Z,3791.25
2022-08-29T08:20:03.280Z,3645.00
2022-08-29T08:21:03.865Z,2874.38
2022-08-29T08:22:03.599Z,2407.50
2022-08-29T08:23:04.361Z,2452.50
2022-08-29T08:24:03.860Z,1209.38
2022-08-29T08:25:04.005Z,1035.00
2022-08-29T08:26:04.862Z,967.50
2022-08-29T08:27:04.343Z,388.12
2022-08-29T08:28:04.467Z,343.12
2022-08-29T08:29:05.387Z,253.12
2022-08-29T08:30:04.861Z,236.25
2022-08-29T08:31:06.471Z,275.62
2022-08-29T08:32:06.197Z,270.00
2022-08-29T08:33:05.428Z,286.88
2022-08-29T08:34:05.765Z,320.62
2022-08-29T08:35:05.764Z,298.12
2022-08-29T08:36:06.003Z,286.88
2022-08-29T08:37:06.144Z,253.12
2022-08-29T08:38:06.273Z,236.25
2022-08-29T08:39:07.365Z,191.25
2022-08-29T08:40:07.413Z,213.75
2022-08-29T08:41:06.789Z,213.75
2022-08-29T08:42:06.930Z,208.12
2022-08-29T08:43:07.898Z,225.00
2022-08-29T08:44:07.249Z,241.88
2022-08-29T08:45:07.390Z,225.00
2022-08-29T08:46:08.439Z,213.75
2022-08-29T08:47:08.366Z,219.38
2022-08-29T08:48:07.870Z,219.38
2022-08-29T08:49:08.008Z,219.38
2022-08-29T08:50:08.199Z,219.38
2022-08-29T08:51:08.349Z,219.38
2022-08-29T08:52:08.511Z,219.38
2022-08-29T08:53:09.370Z,354.38
2022-08-29T08:54:09.866Z,337.50
2022-08-29T08:55:09.122Z,331.88
2022-08-29T08:56:09.378Z,258.75
2022-08-29T08:57:09.386Z,225.00
2022-08-29T08:58:09.515Z,213.75
2022-08-29T08:59:09.659Z,191.25
2022-08-29T09:00:09.884Z,185.62
2022-08-29T09:01:10.103Z,191.25
2022-08-29T09:02:10.296Z,202.50
2022-08-29T09:03:10.480Z,191.25
2022-08-29T09:04:10.609Z,185.62
2022-08-29T09:05:10.756Z,191.25
2022-08-29T09:06:10.910Z,202.50
2022-08-29T09:07:11.056Z,208.12
2022-08-29T09:08:11.184Z,236.25
2022-08-29T09:09:14.371Z,253.12
2022-08-29T09:10:11.472Z,275.62
2022-08-29T09:11:11.641Z,298.12
2022-08-29T09:12:11.768Z,354.38
2022-08-29T09:13:11.961Z,298.12
2022-08-29T09:14:13.031Z,427.50
2022-08-29T09:15:13.978Z,545.62
2022-08-29T09:16:12.539Z,523.12
2022-08-29T09:17:12.698Z,371.25
2022-08-29T09:18:13.792Z,236.25
2022-08-29T09:19:17.251Z,247.50
2022-08-29T09:20:13.197Z,360.00
2022-08-29T09:21:37.192Z,298.12
2022-08-29T09:22:15.584Z,275.62
2022-08-29T09:23:13.916Z,264.38
2022-08-29T09:24:14.001Z,264.38
2022-08-29T09:25:14.136Z,247.50
2022-08-29T09:26:14.879Z,258.75
2022-08-29T09:27:14.539Z,258.75
2022-08-29T09:28:15.381Z,236.25
2022-08-29T09:29:14.872Z,225.00
2022-08-29T09:30:15.026Z,230.62
2022-08-29T09:31:15.939Z,292.50
2022-08-29T09:32:18.975Z,315.00
2022-08-29T09:33:17.774Z,275.62
2022-08-29T09:34:16.384Z,253.12
2022-08-29T09:35:15.778Z,264.38
2022-08-29T09:36:15.935Z,258.75
2022-08-29T09:37:16.887Z,320.62
2022-08-29T09:38:16.926Z,225.00
2022-08-29T09:39:16.446Z,219.38
2022-08-29T09:40:17.832Z,230.62
2022-08-29T09:41:16.731Z,236.25
2022-08-29T09:42:16.882Z,208.12
2022-08-29T09:43:17.087Z,281.25
2022-08-29T09:44:17.885Z,270.00
2022-08-29T09:45:17.896Z,371.25
2022-08-29T09:46:17.633Z,506.25
2022-08-29T09:47:17.641Z,433.12
2022-08-29T09:48:17.773Z,343.12
2022-08-29T09:49:17.909Z,236.25
2022-08-29T09:50:18.053Z,196.88
2022-08-29T09:51:18.186Z,236.25
2022-08-29T09:52:18.366Z,230.62
2022-08-29T09:53:24.605Z,230.62
2022-08-29T09:54:20.415Z,236.25
2022-08-29T09:55:18.760Z,241.88
2022-08-29T09:56:19.892Z,258.75
2022-08-29T09:57:19.136Z,219.38
2022-08-29T09:58:19.259Z,213.75
2022-08-29T09:59:19.897Z,219.38
2022-08-29T10:00:19.638Z,196.88
2022-08-29T10:01:22.094Z,213.75
2022-08-29T10:02:21.057Z,180.00
2022-08-29T10:03:20.402Z,174.38
2022-08-29T10:04:20.378Z,225.00
2022-08-29T10:05:20.504Z,213.75
2022-08-29T10:06:20.630Z,213.75
2022-08-29T10:07:20.754Z,208.12
2022-08-29T10:08:21.021Z,208.12
2022-08-29T10:09:21.150Z,185.62
2022-08-29T10:10:21.276Z,219.38
2022-08-29T10:11:21.495Z,196.88
2022-08-29T10:12:21.742Z,208.12
2022-08-29T10:13:21.982Z,213.75
2022-08-29T10:14:22.120Z,219.38
2022-08-29T10:15:46.574Z,202.50
2022-08-29T10:16:24.955Z,225.00
2022-08-29T10:17:23.422Z,236.25
2022-08-29T10:18:22.784Z,230.62
2022-08-29T10:19:22.938Z,219.38
2022-08-29T10:20:23.058Z,208.12
2022-08-29T10:21:23.220Z,168.75
2022-08-29T10:23:25.398Z,112.50
2022-08-29T10:24:24.408Z,101.25
2022-08-29T10:25:23.881Z,95.62
2022-08-29T10:26:24.039Z,106.88
2022-08-29T10:27:24.149Z,163.12
2022-08-29T10:28:24.400Z,191.25
2022-08-29T10:29:28.481Z,191.25
2022-08-29T10:30:26.724Z,208.12
2022-08-29T10:31:25.964Z,213.75
2022-08-29T10:32:25.126Z,213.75
2022-08-29T10:33:25.242Z,208.12
2022-08-29T10:34:26.400Z,202.50
2022-08-29T10:35:25.662Z,196.88
2022-08-29T10:36:25.796Z,191.25
2022-08-29T10:37:26.422Z,236.25
2022-08-29T10:38:26.074Z,230.62
2022-08-29T10:39:26.907Z,247.50
2022-08-29T10:40:26.512Z,258.75
2022-08-29T10:41:27.408Z,236.25
2022-08-29T10:42:26.790Z,196.88
2022-08-29T10:43:26.912Z,185.62
2022-08-29T10:44:27.059Z,185.62
2022-08-29T10:45:27.961Z,191.25
2022-08-29T10:46:27.461Z,196.88
2022-08-29T10:47:27.746Z,230.62
2022-08-29T10:48:27.856Z,225.00
2022-08-29T10:49:28.101Z,253.12
2022-08-29T10:50:43.508Z,270.00
2022-08-29T10:51:30.541Z,264.38
2022-08-29T10:52:28.768Z,236.25
2022-08-29T10:53:28.899Z,213.75
2022-08-29T10:54:29.914Z,213.75
2022-08-29T10:55:29.272Z,208.12
2022-08-29T10:56:29.482Z,191.25
2022-08-29T10:57:29.928Z,174.38
2022-08-29T10:58:29.829Z,180.00
2022-08-29T10:59:30.916Z,168.75
2022-08-29T11:00:30.916Z,185.62
2022-08-29T11:01:30.318Z,185.62
2022-08-29T11:02:30.480Z,185.62
2022-08-29T11:03:30.648Z,174.38
2022-08-29T11:04:30.770Z,185.62
2022-08-29T11:05:31.417Z,185.62
2022-08-29T11:06:31.169Z,180.00
2022-08-29T11:07:31.935Z,180.00
2022-08-29T11:08:31.592Z,157.50
2022-08-29T11:09:31.778Z,180.00
2022-08-29T11:10:32.920Z,157.50
2022-08-29T11:11:32.162Z,151.88
2022-08-29T11:12:32.296Z,140.62
2022-08-29T11:13:33.419Z,151.88
2022-08-29T11:14:32.782Z,151.88
2022-08-29T11:15:32.912Z,129.38
2022-08-29T11:16:33.213Z,168.75
2022-08-29T11:17:33.235Z,174.38
2022-08-29T11:18:33.369Z,185.62
2022-08-29T11:19:33.590Z,185.62
2022-08-29T11:20:34.750Z,185.62
2022-08-29T11:21:33.850Z,191.25
2022-08-29T11:22:34.049Z,191.25
2022-08-29T11:23:34.286Z,185.62
2022-08-29T11:24:35.155Z,196.88
2022-08-29T11:25:35.644Z,196.88
2022-08-29T11:26:34.772Z,196.88
2022-08-29T11:27:34.941Z,196.88
2022-08-29T11:28:35.968Z,202.50
2022-08-29T11:29:35.201Z,202.50
2022-08-29T11:30:39.785Z,202.50
2022-08-29T11:31:38.465Z,208.12
2022-08-29T11:32:36.256Z,208.12
2022-08-29T11:33:36.463Z,208.12
2022-08-29T11:34:36.086Z,213.75
2022-08-29T11:35:36.439Z,213.75
2022-08-29T11:36:36.456Z,213.75
2022-08-29T11:37:37.429Z,219.38
2022-08-29T11:38:37.430Z,225.00
2022-08-29T11:39:36.948Z,225.00
2022-08-29T11:41:39.981Z,230.62
2022-08-29T11:42:53.922Z,236.25
2022-08-29T11:43:39.716Z,236.25
2022-08-29T11:44:37.956Z,236.25
2022-08-29T11:45:38.102Z,241.88
2022-08-29T11:46:38.330Z,241.88
2022-08-29T11:47:41.173Z,241.88
2022-08-29T11:48:38.551Z,247.50
2022-08-29T11:49:38.951Z,253.12
2022-08-29T11:50:38.856Z,258.75
2022-08-29T11:51:39.000Z,258.75
2022-08-29T11:52:39.158Z,253.12
2022-08-29T11:53:39.317Z,247.50
2022-08-29T11:54:40.449Z,264.38
2022-08-29T11:55:39.732Z,264.38
2022-08-29T11:56:39.926Z,270.00
2022-08-29T11:57:40.938Z,270.00
2022-08-29T11:58:40.341Z,275.62
2022-08-29T11:59:40.521Z,281.25
2022-08-29T12:00:40.719Z,275.62
2022-08-29T12:01:40.923Z,270.00
2022-08-29T12:02:42.688Z,253.12
2022-08-29T12:03:41.396Z,236.25
2022-08-29T12:04:41.618Z,180.00
2022-08-29T12:05:41.785Z,275.62
2022-08-29T12:06:41.961Z,275.62
2022-08-29T12:07:42.116Z,270.00
2022-08-29T12:08:42.298Z,264.38
2022-08-29T12:09:42.454Z,253.12
2022-08-29T12:10:42.594Z,236.25
2022-08-29T12:11:42.726Z,219.38
2022-08-29T12:12:43.872Z,230.62
2022-08-29T12:13:43.125Z,281.25
2022-08-29T12:14:43.252Z,275.62
2022-08-29T12:15:43.386Z,292.50
2022-08-29T12:16:43.551Z,286.88
2022-08-29T12:18:00.952Z,286.88
2022-08-29T12:18:46.447Z,292.50
2022-08-29T12:19:44.009Z,286.88
2022-08-29T12:20:44.162Z,275.62
2022-08-29T12:21:44.329Z,275.62
2022-08-29T12:23:45.644Z,292.50
2022-08-29T12:24:50.954Z,292.50
2022-08-29T12:25:46.126Z,292.50
2022-08-29T12:26:45.225Z,286.88
2022-08-29T12:27:46.443Z,292.50
2022-08-29T12:28:45.678Z,275.62
2022-08-29T12:29:45.788Z,275.62
2022-08-29T12:30:46.033Z,281.25
2022-08-29T12:31:56.738Z,241.88
2022-08-29T12:32:48.985Z,191.25
2022-08-29T12:33:46.989Z,196.88
2022-08-29T12:34:49.702Z,168.75
2022-08-29T12:35:47.449Z,219.38
2022-08-29T12:36:52.073Z,230.62
2022-08-29T12:37:47.383Z,208.12
2022-08-29T12:38:47.533Z,185.62
2022-08-29T12:39:47.964Z,191.25
2022-08-29T12:40:47.888Z,191.25
2022-08-29T12:41:48.952Z,151.88
2022-08-29T12:42:48.466Z,247.50
2022-08-29T12:43:48.342Z,281.25
2022-08-29T12:44:48.557Z,258.75
2022-08-29T12:45:48.965Z,258.75
2022-08-29T12:46:48.784Z,185.62
2022-08-29T12:47:48.866Z,253.12
2022-08-29T12:48:57.613Z,241.88
2022-08-29T12:49:50.154Z,264.38
2022-08-29T12:50:49.298Z,241.88
2022-08-29T12:51:49.455Z,241.88
2022-08-29T12:52:49.599Z,281.25
2022-08-29T12:53:50.476Z,247.50